sensor_id;sensor_type;location;lat;lon;timestamp;P1;durP1;ratioP1;P2;durP2;ratioP2
25663;SDS011;13522;50.018;20.014;2023-02-19T00:00:54;3.53;;;1.80;;
25663;SDS011;13522;50.018;20.014;2023-02-19T00:04:10;4.15;;;1.78;;
25663;SDS011;13522;50.018;20.014;2023-02-19T00:07:25;3.55;;;2.05;;
25663;SDS011;13522;50.018;20.014;2023-02-19T00:10:37;4.78;;;2.40;;
25663;SDS011;13522;50.018;20.014;2023-02-19T00:13:50;2.70;;;1.63;;
25663;SDS011;13522;50.018;20.014;2023-02-19T00:17:04;3.80;;;1.90;;
25663;SDS011;13522;50.018;20.014;2023-02-19T00:20:17;2.68;;;1.70;;
25663;SDS011;13522;50.018;20.014;2023-02-19T00:23:29;3.15;;;1.80;;
25663;SDS011;13522;50.018;20.014;2023-02-19T00:26:42;2.48;;;1.75;;
25663;SDS011;13522;50.018;20.014;2023-02-19T00:29:55;2.65;;;1.83;;
25663;SDS011;13522;50.018;20.014;2023-02-19T00:33:07;3.18;;;1.65;;
25663;SDS011;13522;50.018;20.014;2023-02-19T00:36:19;2.55;;;1.60;;
25663;SDS011;13522;50.018;20.014;2023-02-19T00:39:33;3.10;;;2.23;;
25663;SDS011;13522;50.018;20.014;2023-02-19T00:42:45;4.28;;;1.93;;
25663;SDS011;13522;50.018;20.014;2023-02-19T00:45:57;2.30;;;1.38;;
25663;SDS011;13522;50.018;20.014;2023-02-19T00:49:10;2.45;;;1.70;;
25663;SDS011;13522;50.018;20.014;2023-02-19T00:52:26;3.48;;;2.30;;
25663;SDS011;13522;50.018;20.014;2023-02-19T00:55:38;4.23;;;1.83;;
25663;SDS011;13522;50.018;20.014;2023-02-19T00:58:51;2.75;;;1.73;;
25663;SDS011;13522;50.018;20.014;2023-02-19T01:02:03;5.03;;;1.95;;
25663;SDS011;13522;50.018;20.014;2023-02-19T01:05:15;3.23;;;1.93;;
25663;SDS011;13522;50.018;20.014;2023-02-19T01:08:27;4.30;;;1.90;;
25663;SDS011;13522;50.018;20.014;2023-02-19T01:11:41;2.53;;;1.50;;
25663;SDS011;13522;50.018;20.014;2023-02-19T01:14:53;3.30;;;1.60;;
25663;SDS011;13522;50.018;20.014;2023-02-19T01:18:06;2.58;;;1.80;;
25663;SDS011;13522;50.018;20.014;2023-02-19T01:21:19;4.95;;;1.95;;
25663;SDS011;13522;50.018;20.014;2023-02-19T01:24:33;4.65;;;2.00;;
25663;SDS011;13522;50.018;20.014;2023-02-19T01:27:45;3.08;;;2.10;;
25663;SDS011;13522;50.018;20.014;2023-02-19T01:31:00;3.03;;;2.18;;
25663;SDS011;13522;50.018;20.014;2023-02-19T01:34:15;2.83;;;1.90;;
25663;SDS011;13522;50.018;20.014;2023-02-19T01:37:27;4.05;;;2.15;;
25663;SDS011;13522;50.018;20.014;2023-02-19T01:40:39;2.20;;;1.90;;
25663;SDS011;13522;50.018;20.014;2023-02-19T01:43:58;5.20;;;1.98;;
25663;SDS011;13522;50.018;20.014;2023-02-19T01:47:12;2.90;;;2.00;;
25663;SDS011;13522;50.018;20.014;2023-02-19T01:50:27;2.78;;;1.95;;
25663;SDS011;13522;50.018;20.014;2023-02-19T01:53:44;4.13;;;2.30;;
25663;SDS011;13522;50.018;20.014;2023-02-19T01:57:00;2.63;;;2.10;;
25663;SDS011;13522;50.018;20.014;2023-02-19T02:00:16;4.13;;;2.60;;
25663;SDS011;13522;50.018;20.014;2023-02-19T02:03:29;3.65;;;3.00;;
25663;SDS011;13522;50.018;20.014;2023-02-19T02:06:45;4.18;;;2.88;;
25663;SDS011;13522;50.018;20.014;2023-02-19T02:10:00;3.20;;;2.37;;
25663;SDS011;13522;50.018;20.014;2023-02-19T02:13:27;3.65;;;2.30;;
25663;SDS011;13522;50.018;20.014;2023-02-19T02:16:44;4.10;;;2.65;;
25663;SDS011;13522;50.018;20.014;2023-02-19T02:20:10;3.80;;;2.53;;
25663;SDS011;13522;50.018;20.014;2023-02-19T02:23:42;4.08;;;2.18;;
25663;SDS011;13522;50.018;20.014;2023-02-19T02:30:49;2.95;;;1.70;;
25663;SDS011;13522;50.018;20.014;2023-02-19T02:34:05;3.40;;;2.18;;
25663;SDS011;13522;50.018;20.014;2023-02-19T02:37:22;3.58;;;2.00;;
25663;SDS011;13522;50.018;20.014;2023-02-19T02:40:37;3.60;;;1.95;;
25663;SDS011;13522;50.018;20.014;2023-02-19T02:43:52;4.28;;;2.05;;
25663;SDS011;13522;50.018;20.014;2023-02-19T02:47:04;3.83;;;1.73;;
25663;SDS011;13522;50.018;20.014;2023-02-19T02:50:22;3.40;;;2.18;;
25663;SDS011;13522;50.018;20.014;2023-02-19T02:53:47;2.60;;;1.80;;
25663;SDS011;13522;50.018;20.014;2023-02-19T02:57:09;2.50;;;1.88;;
25663;SDS011;13522;50.018;20.014;2023-02-19T03:00:25;4.30;;;2.03;;
25663;SDS011;13522;50.018;20.014;2023-02-19T03:03:46;2.85;;;1.85;;
25663;SDS011;13522;50.018;20.014;2023-02-19T03:07:04;2.53;;;1.70;;
25663;SDS011;13522;50.018;20.014;2023-02-19T03:10:19;3.05;;;1.73;;
25663;SDS011;13522;50.018;20.014;2023-02-19T03:13:36;4.90;;;2.35;;
25663;SDS011;13522;50.018;20.014;2023-02-19T03:17:05;2.75;;;2.08;;
25663;SDS011;13522;50.018;20.014;2023-02-19T03:20:39;2.55;;;1.88;;
25663;SDS011;13522;50.018;20.014;2023-02-19T03:23:56;3.23;;;2.55;;
25663;SDS011;13522;50.018;20.014;2023-02-19T03:27:23;3.70;;;3.30;;
25663;SDS011;13522;50.018;20.014;2023-02-19T03:30:40;3.95;;;2.90;;
25663;SDS011;13522;50.018;20.014;2023-02-19T03:33:56;5.50;;;3.03;;
25663;SDS011;13522;50.018;20.014;2023-02-19T03:37:14;5.15;;;3.30;;
25663;SDS011;13522;50.018;20.014;2023-02-19T03:40:29;5.38;;;3.63;;
25663;SDS011;13522;50.018;20.014;2023-02-19T03:43:47;4.43;;;3.43;;
25663;SDS011;13522;50.018;20.014;2023-02-19T03:47:06;3.88;;;2.98;;
25663;SDS011;13522;50.018;20.014;2023-02-19T03:50:24;4.98;;;3.43;;
25663;SDS011;13522;50.018;20.014;2023-02-19T03:53:45;5.40;;;3.90;;
25663;SDS011;13522;50.018;20.014;2023-02-19T03:57:10;4.83;;;3.50;;
25663;SDS011;13522;50.018;20.014;2023-02-19T04:00:28;5.35;;;3.15;;
25663;SDS011;13522;50.018;20.014;2023-02-19T04:03:44;3.83;;;2.93;;
25663;SDS011;13522;50.018;20.014;2023-02-19T04:07:00;4.25;;;3.30;;
25663;SDS011;13522;50.018;20.014;2023-02-19T04:10:13;4.08;;;3.08;;
25663;SDS011;13522;50.018;20.014;2023-02-19T04:13:29;4.13;;;2.83;;
25663;SDS011;13522;50.018;20.014;2023-02-19T04:16:45;3.90;;;2.98;;
25663;SDS011;13522;50.018;20.014;2023-02-19T04:20:00;3.93;;;3.40;;
25663;SDS011;13522;50.018;20.014;2023-02-19T04:23:18;5.70;;;3.50;;
25663;SDS011;13522;50.018;20.014;2023-02-19T04:26:33;4.35;;;3.03;;
25663;SDS011;13522;50.018;20.014;2023-02-19T04:29:46;4.23;;;3.00;;
25663;SDS011;13522;50.018;20.014;2023-02-19T04:32:58;4.48;;;3.28;;
25663;SDS011;13522;50.018;20.014;2023-02-19T04:36:11;3.68;;;2.60;;
25663;SDS011;13522;50.018;20.014;2023-02-19T04:39:22;3.85;;;2.40;;
25663;SDS011;13522;50.018;20.014;2023-02-19T04:42:34;5.28;;;2.80;;
25663;SDS011;13522;50.018;20.014;2023-02-19T04:45:46;3.78;;;2.50;;
25663;SDS011;13522;50.018;20.014;2023-02-19T04:48:59;2.63;;;2.10;;
25663;SDS011;13522;50.018;20.014;2023-02-19T04:52:11;3.10;;;2.20;;
25663;SDS011;13522;50.018;20.014;2023-02-19T04:55:23;3.68;;;2.50;;
25663;SDS011;13522;50.018;20.014;2023-02-19T04:58:35;3.28;;;2.40;;
25663;SDS011;13522;50.018;20.014;2023-02-19T05:01:47;3.35;;;2.40;;
25663;SDS011;13522;50.018;20.014;2023-02-19T05:05:00;3.35;;;2.20;;
25663;SDS011;13522;50.018;20.014;2023-02-19T05:08:12;3.25;;;2.60;;
25663;SDS011;13522;50.018;20.014;2023-02-19T05:11:25;3.28;;;2.50;;
25663;SDS011;13522;50.018;20.014;2023-02-19T05:14:37;2.85;;;2.20;;
25663;SDS011;13522;50.018;20.014;2023-02-19T05:17:48;3.20;;;1.90;;
25663;SDS011;13522;50.018;20.014;2023-02-19T05:21:01;3.45;;;2.18;;
25663;SDS011;13522;50.018;20.014;2023-02-19T05:24:14;3.08;;;2.00;;
25663;SDS011;13522;50.018;20.014;2023-02-19T05:27:28;2.63;;;2.15;;
25663;SDS011;13522;50.018;20.014;2023-02-19T05:30:41;2.68;;;2.00;;
25663;SDS011;13522;50.018;20.014;2023-02-19T05:33:55;2.53;;;1.93;;
25663;SDS011;13522;50.018;20.014;2023-02-19T05:37:07;2.80;;;1.95;;
25663;SDS011;13522;50.018;20.014;2023-02-19T05:40:19;3.85;;;1.93;;
25663;SDS011;13522;50.018;20.014;2023-02-19T05:43:31;2.15;;;1.43;;
25663;SDS011;13522;50.018;20.014;2023-02-19T05:46:44;4.45;;;1.65;;
25663;SDS011;13522;50.018;20.014;2023-02-19T05:49:56;2.40;;;1.80;;
25663;SDS011;13522;50.018;20.014;2023-02-19T05:53:08;2.00;;;1.50;;
25663;SDS011;13522;50.018;20.014;2023-02-19T05:56:26;1.98;;;1.63;;
25663;SDS011;13522;50.018;20.014;2023-02-19T05:59:40;1.90;;;1.50;;
25663;SDS011;13522;50.018;20.014;2023-02-19T06:02:53;2.88;;;1.80;;
25663;SDS011;13522;50.018;20.014;2023-02-19T06:06:06;2.35;;;1.83;;
25663;SDS011;13522;50.018;20.014;2023-02-19T06:09:19;2.58;;;1.60;;
25663;SDS011;13522;50.018;20.014;2023-02-19T06:12:31;1.80;;;1.60;;
25663;SDS011;13522;50.018;20.014;2023-02-19T06:15:43;2.78;;;2.10;;
25663;SDS011;13522;50.018;20.014;2023-02-19T06:18:55;2.45;;;1.88;;
25663;SDS011;13522;50.018;20.014;2023-02-19T06:22:07;3.18;;;2.23;;
25663;SDS011;13522;50.018;20.014;2023-02-19T06:25:21;3.08;;;2.30;;
25663;SDS011;13522;50.018;20.014;2023-02-19T06:28:33;3.38;;;2.75;;
25663;SDS011;13522;50.018;20.014;2023-02-19T06:31:45;3.65;;;2.70;;
25663;SDS011;13522;50.018;20.014;2023-02-19T06:34:57;6.40;;;3.23;;
25663;SDS011;13522;50.018;20.014;2023-02-19T06:38:09;4.13;;;3.20;;
25663;SDS011;13522;50.018;20.014;2023-02-19T06:41:21;4.43;;;3.30;;
25663;SDS011;13522;50.018;20.014;2023-02-19T06:44:33;4.63;;;3.83;;
25663;SDS011;13522;50.018;20.014;2023-02-19T06:47:45;4.53;;;3.30;;
25663;SDS011;13522;50.018;20.014;2023-02-19T06:50:57;4.55;;;3.53;;
25663;SDS011;13522;50.018;20.014;2023-02-19T06:54:09;6.30;;;4.68;;
25663;SDS011;13522;50.018;20.014;2023-02-19T06:57:21;29.48;;;18.40;;
25663;SDS011;13522;50.018;20.014;2023-02-19T07:00:33;6.23;;;4.68;;
25663;SDS011;13522;50.018;20.014;2023-02-19T07:03:45;8.58;;;5.13;;
25663;SDS011;13522;50.018;20.014;2023-02-19T07:06:58;6.20;;;4.65;;
25663;SDS011;13522;50.018;20.014;2023-02-19T07:10:10;5.93;;;4.70;;
25663;SDS011;13522;50.018;20.014;2023-02-19T07:13:24;8.93;;;5.78;;
25663;SDS011;13522;50.018;20.014;2023-02-19T07:16:36;6.85;;;5.88;;
25663;SDS011;13522;50.018;20.014;2023-02-19T07:19:50;6.48;;;5.00;;
25663;SDS011;13522;50.018;20.014;2023-02-19T07:23:02;8.15;;;5.30;;
25663;SDS011;13522;50.018;20.014;2023-02-19T07:26:15;7.03;;;5.70;;
25663;SDS011;13522;50.018;20.014;2023-02-19T07:29:33;6.75;;;5.28;;
25663;SDS011;13522;50.018;20.014;2023-02-19T07:32:58;7.93;;;5.75;;
25663;SDS011;13522;50.018;20.014;2023-02-19T07:36:13;7.68;;;6.28;;
25663;SDS011;13522;50.018;20.014;2023-02-19T07:39:27;7.35;;;6.45;;
25663;SDS011;13522;50.018;20.014;2023-02-19T07:42:39;8.28;;;5.98;;
25663;SDS011;13522;50.018;20.014;2023-02-19T07:45:53;6.50;;;5.50;;
25663;SDS011;13522;50.018;20.014;2023-02-19T07:49:06;10.25;;;6.85;;
25663;SDS011;13522;50.018;20.014;2023-02-19T07:52:18;8.55;;;7.00;;
25663;SDS011;13522;50.018;20.014;2023-02-19T07:55:31;7.33;;;5.90;;
25663;SDS011;13522;50.018;20.014;2023-02-19T07:58:43;6.83;;;5.78;;
25663;SDS011;13522;50.018;20.014;2023-02-19T08:01:56;8.40;;;6.20;;
25663;SDS011;13522;50.018;20.014;2023-02-19T08:05:22;8.48;;;6.98;;
25663;SDS011;13522;50.018;20.014;2023-02-19T08:08:35;8.38;;;5.88;;
25663;SDS011;13522;50.018;20.014;2023-02-19T08:11:47;7.35;;;5.70;;
25663;SDS011;13522;50.018;20.014;2023-02-19T08:15:14;9.73;;;6.17;;
25663;SDS011;13522;50.018;20.014;2023-02-19T08:18:27;9.23;;;7.13;;
25663;SDS011;13522;50.018;20.014;2023-02-19T08:21:41;7.45;;;6.33;;
25663;SDS011;13522;50.018;20.014;2023-02-19T08:24:53;7.55;;;5.70;;
25663;SDS011;13522;50.018;20.014;2023-02-19T08:28:05;8.90;;;6.55;;
25663;SDS011;13522;50.018;20.014;2023-02-19T08:31:19;9.83;;;6.43;;
25663;SDS011;13522;50.018;20.014;2023-02-19T08:34:31;10.85;;;6.70;;
25663;SDS011;13522;50.018;20.014;2023-02-19T08:37:44;8.65;;;6.48;;
25663;SDS011;13522;50.018;20.014;2023-02-19T08:40:56;9.10;;;6.20;;
25663;SDS011;13522;50.018;20.014;2023-02-19T08:44:10;9.38;;;6.70;;
25663;SDS011;13522;50.018;20.014;2023-02-19T08:47:22;10.08;;;7.05;;
25663;SDS011;13522;50.018;20.014;2023-02-19T08:50:35;10.35;;;6.73;;
25663;SDS011;13522;50.018;20.014;2023-02-19T08:53:47;9.63;;;6.43;;
25663;SDS011;13522;50.018;20.014;2023-02-19T08:56:59;10.05;;;6.85;;
25663;SDS011;13522;50.018;20.014;2023-02-19T09:00:13;8.60;;;6.55;;
25663;SDS011;13522;50.018;20.014;2023-02-19T09:03:26;9.03;;;6.05;;
25663;SDS011;13522;50.018;20.014;2023-02-19T09:06:38;8.25;;;5.55;;
25663;SDS011;13522;50.018;20.014;2023-02-19T09:09:50;7.53;;;5.93;;
25663;SDS011;13522;50.018;20.014;2023-02-19T09:13:02;9.75;;;6.93;;
25663;SDS011;13522;50.018;20.014;2023-02-19T09:16:15;11.40;;;7.05;;
25663;SDS011;13522;50.018;20.014;2023-02-19T09:19:27;8.35;;;5.50;;
25663;SDS011;13522;50.018;20.014;2023-02-19T09:22:40;8.35;;;5.60;;
25663;SDS011;13522;50.018;20.014;2023-02-19T09:25:56;7.98;;;6.15;;
25663;SDS011;13522;50.018;20.014;2023-02-19T09:29:13;10.65;;;5.80;;
25663;SDS011;13522;50.018;20.014;2023-02-19T09:32:25;7.88;;;5.20;;
25663;SDS011;13522;50.018;20.014;2023-02-19T09:35:39;7.13;;;4.98;;
25663;SDS011;13522;50.018;20.014;2023-02-19T09:38:51;7.63;;;5.15;;
25663;SDS011;13522;50.018;20.014;2023-02-19T09:42:08;7.58;;;4.63;;
25663;SDS011;13522;50.018;20.014;2023-02-19T09:45:24;6.00;;;4.18;;
25663;SDS011;13522;50.018;20.014;2023-02-19T09:48:37;5.90;;;4.38;;
25663;SDS011;13522;50.018;20.014;2023-02-19T09:51:50;6.88;;;4.70;;
25663;SDS011;13522;50.018;20.014;2023-02-19T09:55:12;6.50;;;3.30;;
25663;SDS011;13522;50.018;20.014;2023-02-19T09:58:27;5.53;;;3.00;;
25663;SDS011;13522;50.018;20.014;2023-02-19T10:01:42;6.78;;;3.35;;
25663;SDS011;13522;50.018;20.014;2023-02-19T10:04:59;4.43;;;2.73;;
25663;SDS011;13522;50.018;20.014;2023-02-19T10:08:14;3.03;;;1.85;;
25663;SDS011;13522;50.018;20.014;2023-02-19T10:11:29;2.93;;;1.78;;
25663;SDS011;13522;50.018;20.014;2023-02-19T10:14:42;3.78;;;1.60;;
25663;SDS011;13522;50.018;20.014;2023-02-19T10:21:08;3.28;;;1.85;;
25663;SDS011;13522;50.018;20.014;2023-02-19T10:24:25;5.05;;;1.70;;
25663;SDS011;13522;50.018;20.014;2023-02-19T10:27:40;2.15;;;1.50;;
25663;SDS011;13522;50.018;20.014;2023-02-19T10:30:54;3.85;;;1.33;;
25663;SDS011;13522;50.018;20.014;2023-02-19T10:34:16;1.90;;;1.10;;
25663;SDS011;13522;50.018;20.014;2023-02-19T10:37:31;5.08;;;2.43;;
25663;SDS011;13522;50.018;20.014;2023-02-19T10:40:44;4.63;;;1.50;;
25663;SDS011;13522;50.018;20.014;2023-02-19T10:43:59;4.18;;;2.30;;
25663;SDS011;13522;50.018;20.014;2023-02-19T10:50:31;4.60;;;2.90;;
25663;SDS011;13522;50.018;20.014;2023-02-19T10:53:48;5.25;;;2.28;;
25663;SDS011;13522;50.018;20.014;2023-02-19T10:57:25;3.53;;;2.45;;
25663;SDS011;13522;50.018;20.014;2023-02-19T11:00:41;4.43;;;1.90;;
25663;SDS011;13522;50.018;20.014;2023-02-19T11:04:12;3.45;;;1.78;;
25663;SDS011;13522;50.018;20.014;2023-02-19T11:07:24;3.23;;;1.80;;
25663;SDS011;13522;50.018;20.014;2023-02-19T11:10:37;3.00;;;2.00;;
25663;SDS011;13522;50.018;20.014;2023-02-19T11:13:51;3.55;;;1.83;;
25663;SDS011;13522;50.018;20.014;2023-02-19T11:17:05;14.50;;;8.43;;
25663;SDS011;13522;50.018;20.014;2023-02-19T11:20:28;5.03;;;2.98;;
25663;SDS011;13522;50.018;20.014;2023-02-19T11:23:44;4.05;;;2.10;;
25663;SDS011;13522;50.018;20.014;2023-02-19T11:26:56;3.13;;;1.80;;
25663;SDS011;13522;50.018;20.014;2023-02-19T11:30:31;2.63;;;1.63;;
25663;SDS011;13522;50.018;20.014;2023-02-19T11:33:51;3.85;;;2.28;;
25663;SDS011;13522;50.018;20.014;2023-02-19T11:37:09;2.78;;;1.60;;
25663;SDS011;13522;50.018;20.014;2023-02-19T11:40:26;3.00;;;1.70;;
25663;SDS011;13522;50.018;20.014;2023-02-19T11:43:55;2.50;;;1.90;;
25663;SDS011;13522;50.018;20.014;2023-02-19T11:47:27;3.00;;;1.80;;
25663;SDS011;13522;50.018;20.014;2023-02-19T11:51:01;2.88;;;1.90;;
25663;SDS011;13522;50.018;20.014;2023-02-19T11:54:35;2.00;;;1.50;;
25663;SDS011;13522;50.018;20.014;2023-02-19T11:58:01;2.15;;;1.40;;
25663;SDS011;13522;50.018;20.014;2023-02-19T12:01:20;3.70;;;1.80;;
25663;SDS011;13522;50.018;20.014;2023-02-19T12:08:42;2.45;;;1.73;;
25663;SDS011;13522;50.018;20.014;2023-02-19T12:12:32;4.93;;;2.88;;
25663;SDS011;13522;50.018;20.014;2023-02-19T12:16:07;2.83;;;1.80;;
25663;SDS011;13522;50.018;20.014;2023-02-19T12:19:33;2.03;;;1.60;;
25663;SDS011;13522;50.018;20.014;2023-02-19T12:23:13;2.98;;;1.70;;
25663;SDS011;13522;50.018;20.014;2023-02-19T12:26:41;2.28;;;1.80;;
25663;SDS011;13522;50.018;20.014;2023-02-19T12:30:11;4.28;;;2.18;;
25663;SDS011;13522;50.018;20.014;2023-02-19T12:33:57;4.03;;;2.40;;
25663;SDS011;13522;50.018;20.014;2023-02-19T12:37:25;4.65;;;2.00;;
25663;SDS011;13522;50.018;20.014;2023-02-19T12:40:48;10.28;;;6.90;;
25663;SDS011;13522;50.018;20.014;2023-02-19T12:44:10;3.80;;;2.25;;
25663;SDS011;13522;50.018;20.014;2023-02-19T12:47:27;4.40;;;2.73;;
25663;SDS011;13522;50.018;20.014;2023-02-19T12:50:42;4.15;;;2.15;;
25663;SDS011;13522;50.018;20.014;2023-02-19T12:54:00;4.03;;;2.20;;
25663;SDS011;13522;50.018;20.014;2023-02-19T12:57:19;3.68;;;1.90;;
25663;SDS011;13522;50.018;20.014;2023-02-19T13:00:36;3.50;;;2.03;;
25663;SDS011;13522;50.018;20.014;2023-02-19T13:03:57;4.13;;;2.33;;
25663;SDS011;13522;50.018;20.014;2023-02-19T13:07:22;2.93;;;2.20;;
25663;SDS011;13522;50.018;20.014;2023-02-19T13:10:41;3.00;;;1.95;;
25663;SDS011;13522;50.018;20.014;2023-02-19T13:13:58;6.45;;;2.50;;
25663;SDS011;13522;50.018;20.014;2023-02-19T13:17:17;4.23;;;2.40;;
25663;SDS011;13522;50.018;20.014;2023-02-19T13:20:34;3.88;;;2.60;;
25663;SDS011;13522;50.018;20.014;2023-02-19T13:23:51;5.43;;;3.10;;
25663;SDS011;13522;50.018;20.014;2023-02-19T13:27:15;5.80;;;3.40;;
25663;SDS011;13522;50.018;20.014;2023-02-19T13:30:55;8.03;;;3.95;;
25663;SDS011;13522;50.018;20.014;2023-02-19T13:34:22;7.58;;;4.43;;
25663;SDS011;13522;50.018;20.014;2023-02-19T13:37:43;7.63;;;5.08;;
25663;SDS011;13522;50.018;20.014;2023-02-19T13:40:57;9.18;;;5.85;;
25663;SDS011;13522;50.018;20.014;2023-02-19T13:44:16;13.15;;;7.53;;
25663;SDS011;13522;50.018;20.014;2023-02-19T13:47:57;12.03;;;7.53;;
25663;SDS011;13522;50.018;20.014;2023-02-19T13:58:53;12.38;;;7.15;;
25663;SDS011;13522;50.018;20.014;2023-02-19T14:12:54;8.68;;;4.80;;
25663;SDS011;13522;50.018;20.014;2023-02-19T14:16:09;8.45;;;4.40;;
25663;SDS011;13522;50.018;20.014;2023-02-19T14:19:44;6.85;;;3.20;;
25663;SDS011;13522;50.018;20.014;2023-02-19T14:23:13;6.58;;;3.70;;
25663;SDS011;13522;50.018;20.014;2023-02-19T14:26:29;4.18;;;2.30;;
25663;SDS011;13522;50.018;20.014;2023-02-19T14:29:43;4.05;;;2.08;;
25663;SDS011;13522;50.018;20.014;2023-02-19T14:32:56;4.15;;;1.90;;
25663;SDS011;13522;50.018;20.014;2023-02-19T14:36:15;3.95;;;2.43;;
25663;SDS011;13522;50.018;20.014;2023-02-19T14:39:48;3.98;;;2.23;;
25663;SDS011;13522;50.018;20.014;2023-02-19T14:43:01;3.80;;;2.30;;
25663;SDS011;13522;50.018;20.014;2023-02-19T14:46:16;5.43;;;2.68;;
25663;SDS011;13522;50.018;20.014;2023-02-19T14:49:36;6.48;;;3.15;;
25663;SDS011;13522;50.018;20.014;2023-02-19T14:52:51;4.53;;;2.80;;
25663;SDS011;13522;50.018;20.014;2023-02-19T14:56:13;5.70;;;2.98;;
25663;SDS011;13522;50.018;20.014;2023-02-19T14:59:29;9.53;;;3.63;;
25663;SDS011;13522;50.018;20.014;2023-02-19T15:02:41;8.20;;;3.95;;
25663;SDS011;13522;50.018;20.014;2023-02-19T15:05:54;8.18;;;4.68;;
25663;SDS011;13522;50.018;20.014;2023-02-19T15:09:12;7.60;;;4.35;;
25663;SDS011;13522;50.018;20.014;2023-02-19T15:12:26;6.95;;;4.00;;
25663;SDS011;13522;50.018;20.014;2023-02-19T15:15:43;6.75;;;3.73;;
25663;SDS011;13522;50.018;20.014;2023-02-19T15:18:57;8.60;;;4.33;;
25663;SDS011;13522;50.018;20.014;2023-02-19T15:22:13;10.15;;;5.18;;
25663;SDS011;13522;50.018;20.014;2023-02-19T15:25:30;9.20;;;5.15;;
25663;SDS011;13522;50.018;20.014;2023-02-19T15:28:44;9.07;;;4.50;;
25663;SDS011;13522;50.018;20.014;2023-02-19T15:32:12;9.53;;;4.73;;
25663;SDS011;13522;50.018;20.014;2023-02-19T15:35:29;10.90;;;5.30;;
25663;SDS011;13522;50.018;20.014;2023-02-19T15:38:42;8.45;;;4.53;;
25663;SDS011;13522;50.018;20.014;2023-02-19T15:41:56;6.95;;;4.03;;
25663;SDS011;13522;50.018;20.014;2023-02-19T15:45:15;9.50;;;4.68;;
25663;SDS011;13522;50.018;20.014;2023-02-19T15:48:31;7.55;;;3.88;;
25663;SDS011;13522;50.018;20.014;2023-02-19T15:51:49;7.93;;;4.03;;
25663;SDS011;13522;50.018;20.014;2023-02-19T15:55:08;8.33;;;4.70;;
25663;SDS011;13522;50.018;20.014;2023-02-19T15:58:42;9.48;;;4.90;;
25663;SDS011;13522;50.018;20.014;2023-02-19T16:01:57;10.80;;;5.73;;
25663;SDS011;13522;50.018;20.014;2023-02-19T16:05:14;10.45;;;4.90;;
25663;SDS011;13522;50.018;20.014;2023-02-19T16:08:33;8.45;;;5.10;;
25663;SDS011;13522;50.018;20.014;2023-02-19T16:11:49;7.85;;;4.73;;
25663;SDS011;13522;50.018;20.014;2023-02-19T16:15:11;9.85;;;5.00;;
25663;SDS011;13522;50.018;20.014;2023-02-19T16:18:27;9.73;;;5.35;;
25663;SDS011;13522;50.018;20.014;2023-02-19T16:21:41;9.68;;;4.78;;
25663;SDS011;13522;50.018;20.014;2023-02-19T16:24:54;11.40;;;5.13;;
25663;SDS011;13522;50.018;20.014;2023-02-19T16:28:11;9.00;;;4.78;;
25663;SDS011;13522;50.018;20.014;2023-02-19T16:31:28;9.73;;;5.50;;
25663;SDS011;13522;50.018;20.014;2023-02-19T16:34:41;10.23;;;4.90;;
25663;SDS011;13522;50.018;20.014;2023-02-19T16:37:57;9.38;;;4.50;;
25663;SDS011;13522;50.018;20.014;2023-02-19T16:41:13;12.10;;;5.28;;
25663;SDS011;13522;50.018;20.014;2023-02-19T16:44:33;12.48;;;5.33;;
25663;SDS011;13522;50.018;20.014;2023-02-19T16:47:45;12.40;;;5.20;;
25663;SDS011;13522;50.018;20.014;2023-02-19T16:50:58;9.10;;;4.63;;
25663;SDS011;13522;50.018;20.014;2023-02-19T16:54:11;13.28;;;5.20;;
25663;SDS011;13522;50.018;20.014;2023-02-19T16:57:24;10.45;;;5.15;;
25663;SDS011;13522;50.018;20.014;2023-02-19T17:00:36;12.55;;;5.55;;
25663;SDS011;13522;50.018;20.014;2023-02-19T17:03:49;10.40;;;5.10;;
25663;SDS011;13522;50.018;20.014;2023-02-19T17:07:05;13.53;;;5.28;;
25663;SDS011;13522;50.018;20.014;2023-02-19T17:10:21;12.50;;;4.98;;
25663;SDS011;13522;50.018;20.014;2023-02-19T17:13:35;10.55;;;5.25;;
25663;SDS011;13522;50.018;20.014;2023-02-19T17:16:48;11.38;;;5.95;;
25663;SDS011;13522;50.018;20.014;2023-02-19T17:20:05;14.65;;;5.88;;
25663;SDS011;13522;50.018;20.014;2023-02-19T17:26:40;10.63;;;5.43;;
25663;SDS011;13522;50.018;20.014;2023-02-19T17:29:52;12.20;;;6.00;;
25663;SDS011;13522;50.018;20.014;2023-02-19T17:33:13;10.95;;;5.78;;
25663;SDS011;13522;50.018;20.014;2023-02-19T17:36:26;13.93;;;6.38;;
25663;SDS011;13522;50.018;20.014;2023-02-19T17:39:41;12.93;;;6.15;;
25663;SDS011;13522;50.018;20.014;2023-02-19T17:42:53;14.23;;;6.25;;
25663;SDS011;13522;50.018;20.014;2023-02-19T17:46:05;15.10;;;6.78;;
25663;SDS011;13522;50.018;20.014;2023-02-19T17:49:22;12.40;;;5.88;;
25663;SDS011;13522;50.018;20.014;2023-02-19T17:53:21;14.23;;;7.30;;
25663;SDS011;13522;50.018;20.014;2023-02-19T17:56:34;14.88;;;5.85;;
25663;SDS011;13522;50.018;20.014;2023-02-19T17:59:51;12.43;;;5.80;;
25663;SDS011;13522;50.018;20.014;2023-02-19T18:03:03;10.25;;;5.95;;
25663;SDS011;13522;50.018;20.014;2023-02-19T18:06:15;12.78;;;5.53;;
25663;SDS011;13522;50.018;20.014;2023-02-19T18:09:28;14.80;;;5.85;;
25663;SDS011;13522;50.018;20.014;2023-02-19T18:12:40;14.53;;;5.55;;
25663;SDS011;13522;50.018;20.014;2023-02-19T18:15:53;11.23;;;6.35;;
25663;SDS011;13522;50.018;20.014;2023-02-19T18:19:05;10.90;;;5.80;;
25663;SDS011;13522;50.018;20.014;2023-02-19T18:22:18;13.28;;;6.00;;
25663;SDS011;13522;50.018;20.014;2023-02-19T18:25:31;13.05;;;6.38;;
25663;SDS011;13522;50.018;20.014;2023-02-19T18:28:43;16.93;;;6.18;;
25663;SDS011;13522;50.018;20.014;2023-02-19T18:31:55;12.25;;;5.80;;
25663;SDS011;13522;50.018;20.014;2023-02-19T18:35:08;13.33;;;5.38;;
25663;SDS011;13522;50.018;20.014;2023-02-19T18:38:20;13.23;;;5.90;;
25663;SDS011;13522;50.018;20.014;2023-02-19T18:41:32;12.30;;;5.60;;
25663;SDS011;13522;50.018;20.014;2023-02-19T18:44:47;12.40;;;5.28;;
25663;SDS011;13522;50.018;20.014;2023-02-19T18:48:00;15.80;;;6.45;;
25663;SDS011;13522;50.018;20.014;2023-02-19T18:51:13;16.48;;;6.30;;
25663;SDS011;13522;50.018;20.014;2023-02-19T18:54:26;9.88;;;5.05;;
25663;SDS011;13522;50.018;20.014;2023-02-19T18:57:40;12.18;;;5.15;;
25663;SDS011;13522;50.018;20.014;2023-02-19T19:00:52;13.48;;;4.98;;
25663;SDS011;13522;50.018;20.014;2023-02-19T19:04:04;12.70;;;4.78;;
25663;SDS011;13522;50.018;20.014;2023-02-19T19:07:17;12.80;;;5.20;;
25663;SDS011;13522;50.018;20.014;2023-02-19T19:10:30;14.50;;;5.18;;
25663;SDS011;13522;50.018;20.014;2023-02-19T19:13:43;13.73;;;5.85;;
25663;SDS011;13522;50.018;20.014;2023-02-19T19:16:56;15.35;;;6.85;;
25663;SDS011;13522;50.018;20.014;2023-02-19T19:20:09;15.15;;;7.50;;
25663;SDS011;13522;50.018;20.014;2023-02-19T19:23:22;17.58;;;8.18;;
25663;SDS011;13522;50.018;20.014;2023-02-19T19:26:34;21.68;;;7.68;;
25663;SDS011;13522;50.018;20.014;2023-02-19T19:29:52;17.55;;;7.50;;
25663;SDS011;13522;50.018;20.014;2023-02-19T19:33:05;18.35;;;7.75;;
25663;SDS011;13522;50.018;20.014;2023-02-19T19:36:19;18.13;;;8.13;;
25663;SDS011;13522;50.018;20.014;2023-02-19T19:39:32;17.73;;;8.18;;
25663;SDS011;13522;50.018;20.014;2023-02-19T19:42:44;19.78;;;7.48;;
25663;SDS011;13522;50.018;20.014;2023-02-19T19:46:02;13.90;;;6.88;;
25663;SDS011;13522;50.018;20.014;2023-02-19T19:49:17;15.53;;;7.03;;
25663;SDS011;13522;50.018;20.014;2023-02-19T19:52:31;13.48;;;6.83;;
25663;SDS011;13522;50.018;20.014;2023-02-19T19:55:44;14.68;;;7.08;;